sensor_id;sensor_type;location;lat;lon;timestamp;pressure;altitude;pressure_sealevel;temperature;humidity
37832;BME280;23671;38.090;-122.570;2023-01-19T00:00:54;101986.22;;;11.41;81.63
37832;BME280;23671;38.090;-122.570;2023-01-19T00:03:21;101981.75;;;11.42;82.04
37832;BME280;23671;38.090;-122.570;2023-01-19T00:05:48;101981.69;;;11.43;81.50
37832;BME280;23671;38.090;-122.570;2023-01-19T00:08:16;101977.16;;;11.45;81.81
37832;BME280;23671;38.090;-122.570;2023-01-19T00:10:45;101985.81;;;11.47;82.00
37832;BME280;23671;38.090;-122.570;2023-01-19T00:13:12;101981.47;;;11.46;82.16
37832;BME280;23671;38.090;-122.570;2023-01-19T00:15:39;101976.84;;;11.50;82.02
37832;BME280;23671;38.090;-122.570;2023-01-19T00:18:06;101976.84;;;11.50;82.22
37832;BME280;23671;38.090;-122.570;2023-01-19T00:20:33;101983.84;;;11.51;81.75
37832;BME280;23671;38.090;-122.570;2023-01-19T00:23:04;101992.53;;;11.53;82.16
37832;BME280;23671;38.090;-122.570;2023-01-19T00:25:33;101995.09;;;11.54;81.49
37832;BME280;23671;38.090;-122.570;2023-01-19T00:28:00;101999.41;;;11.55;81.74
37832;BME280;23671;38.090;-122.570;2023-01-19T00:30:27;101988.81;;;11.55;82.02
37832;BME280;23671;38.090;-122.570;2023-01-19T00:32:55;101978.19;;;11.57;82.14
37832;BME280;23671;38.090;-122.570;2023-01-19T00:35:22;101988.66;;;11.58;82.19
37832;BME280;23671;38.090;-122.570;2023-01-19T00:37:49;101986.84;;;11.59;81.54
37832;BME280;23671;38.090;-122.570;2023-01-19T00:40:16;101969.19;;;11.59;81.79
37832;BME280;23671;38.090;-122.570;2023-01-19T00:42:44;101971.72;;;11.61;81.94
37832;BME280;23671;38.090;-122.570;2023-01-19T00:45:15;101964.63;;;11.61;81.61
37832;BME280;23671;38.090;-122.570;2023-01-19T00:47:45;101962.94;;;11.60;82.69
37832;BME280;23671;38.090;-122.570;2023-01-19T00:50:13;101974.28;;;11.62;82.47
37832;BME280;23671;38.090;-122.570;2023-01-19T00:52:43;101976.84;;;11.64;82.21
37832;BME280;23671;38.090;-122.570;2023-01-19T00:55:12;101975.97;;;11.63;82.58
37832;BME280;23671;38.090;-122.570;2023-01-19T00:57:43;101962.66;;;11.65;82.46
37832;BME280;23671;38.090;-122.570;2023-01-19T01:00:13;101952.94;;;11.65;82.92
37832;BME280;23671;38.090;-122.570;2023-01-19T01:02:42;101960.78;;;11.67;82.74
37832;BME280;23671;38.090;-122.570;2023-01-19T01:05:10;101954.66;;;11.66;82.28
37832;BME280;23671;38.090;-122.570;2023-01-19T01:07:38;101944.09;;;11.66;82.88
37832;BME280;23671;38.090;-122.570;2023-01-19T01:10:17;101945.75;;;11.67;82.79
37832;BME280;23671;38.090;-122.570;2023-01-19T01:12:45;101940.38;;;11.69;82.35
37832;BME280;23671;38.090;-122.570;2023-01-19T01:15:13;101943.00;;;11.69;82.38
37832;BME280;23671;38.090;-122.570;2023-01-19T01:17:41;101936.78;;;11.70;82.95
37832;BME280;23671;38.090;-122.570;2023-01-19T01:20:17;101933.28;;;11.69;82.36
37832;BME280;23671;38.090;-122.570;2023-01-19T01:22:50;101926.22;;;11.70;82.21
37832;BME280;23671;38.090;-122.570;2023-01-19T01:25:20;101929.69;;;11.70;82.71
37832;BME280;23671;38.090;-122.570;2023-01-19T01:27:47;101936.91;;;11.68;82.67
37832;BME280;23671;38.090;-122.570;2023-01-19T01:30:16;101924.50;;;11.69;82.53
37832;BME280;23671;38.090;-122.570;2023-01-19T01:32:43;101934.25;;;11.68;82.60
37832;BME280;23671;38.090;-122.570;2023-01-19T01:35:11;101924.38;;;11.70;82.08
37832;BME280;23671;38.090;-122.570;2023-01-19T01:37:44;101922.72;;;11.69;82.74
37832;BME280;23671;38.090;-122.570;2023-01-19T01:40:13;101912.13;;;11.69;82.71
37832;BME280;23671;38.090;-122.570;2023-01-19T01:42:43;101921.75;;;11.70;82.19
37832;BME280;23671;38.090;-122.570;2023-01-19T01:45:36;101918.28;;;11.70;82.47
37832;BME280;23671;38.090;-122.570;2023-01-19T01:48:15;101908.50;;;11.70;82.03
37832;BME280;23671;38.090;-122.570;2023-01-19T01:50:59;101903.22;;;11.70;81.96
37832;BME280;23671;38.090;-122.570;2023-01-19T01:53:48;101912.97;;;11.70;81.96
37832;BME280;23671;38.090;-122.570;2023-01-19T01:56:23;101907.84;;;11.81;81.05
37832;BME280;23671;38.090;-122.570;2023-01-19T01:58:51;101896.28;;;11.82;81.48
37832;BME280;23671;38.090;-122.570;2023-01-19T02:01:19;101906.03;;;11.81;81.47
37832;BME280;23671;38.090;-122.570;2023-01-19T02:04:05;101914.72;;;11.83;81.94
37832;BME280;23671;38.090;-122.570;2023-01-19T02:06:32;101905.81;;;11.84;81.52
37832;BME280;23671;38.090;-122.570;2023-01-19T02:09:06;101904.91;;;11.85;81.83
37832;BME280;23671;38.090;-122.570;2023-01-19T02:11:54;101904.91;;;11.85;81.87
37832;BME280;23671;38.090;-122.570;2023-01-19T02:14:39;101888.91;;;11.87;81.52
37832;BME280;23671;38.090;-122.570;2023-01-19T02:17:07;101899.38;;;11.88;81.83
37832;BME280;23671;38.090;-122.570;2023-01-19T02:19:39;101889.66;;;11.89;81.41
37832;BME280;23671;38.090;-122.570;2023-01-19T02:22:19;101885.22;;;11.90;80.87
37832;BME280;23671;38.090;-122.570;2023-01-19T02:24:48;101885.13;;;12.04;80.26
37832;BME280;23671;38.090;-122.570;2023-01-19T02:27:16;101878.69;;;12.08;80.47
37832;BME280;23671;38.090;-122.570;2023-01-19T02:29:43;101872.06;;;12.15;79.89
37832;BME280;23671;38.090;-122.570;2023-01-19T02:32:10;101875.00;;;12.10;80.39
37832;BME280;23671;38.090;-122.570;2023-01-19T02:34:38;101869.81;;;12.09;80.32
37832;BME280;23671;38.090;-122.570;2023-01-19T02:37:13;101874.25;;;12.21;79.46
37832;BME280;23671;38.090;-122.570;2023-01-19T02:39:49;101878.22;;;12.28;79.56
37832;BME280;23671;38.090;-122.570;2023-01-19T02:42:43;101870.97;;;12.17;80.49
37832;BME280;23671;38.090;-122.570;2023-01-19T02:45:13;101878.50;;;12.11;80.11
37832;BME280;23671;38.090;-122.570;2023-01-19T02:47:47;101878.81;;;12.06;80.73
37832;BME280;23671;38.090;-122.570;2023-01-19T02:53:18;101874.88;;;11.99;80.52
37832;BME280;23671;38.090;-122.570;2023-01-19T03:06:50;101868.38;;;11.91;81.38
37832;BME280;23671;38.090;-122.570;2023-01-19T03:09:30;101858.75;;;11.90;80.86
37832;BME280;23671;38.090;-122.570;2023-01-19T03:12:04;101859.59;;;11.90;81.51
37832;BME280;23671;38.090;-122.570;2023-01-19T03:14:38;101861.41;;;11.90;81.08
37832;BME280;23671;38.090;-122.570;2023-01-19T03:17:09;101860.56;;;11.89;81.09
37832;BME280;23671;38.090;-122.570;2023-01-19T03:19:42;101849.09;;;11.88;81.66
37832;BME280;23671;38.090;-122.570;2023-01-19T03:22:21;101843.81;;;11.88;81.29
37832;BME280;23671;38.090;-122.570;2023-01-19T03:24:51;101841.16;;;11.88;81.32
37832;BME280;23671;38.090;-122.570;2023-01-19T03:27:32;101842.03;;;11.89;80.93
37832;BME280;23671;38.090;-122.570;2023-01-19T03:30:34;101832.38;;;11.88;81.39
37832;BME280;23671;38.090;-122.570;2023-01-19T03:33:10;101835.00;;;11.88;81.23
37832;BME280;23671;38.090;-122.570;2023-01-19T03:35:40;101828.91;;;11.88;80.56
37832;BME280;23671;38.090;-122.570;2023-01-19T03:38:13;101828.91;;;11.88;80.89
37832;BME280;23671;38.090;-122.570;2023-01-19T03:40:41;101820.09;;;11.87;81.07
37832;BME280;23671;38.090;-122.570;2023-01-19T03:43:09;101825.28;;;11.88;80.59
37832;BME280;23671;38.090;-122.570;2023-01-19T03:45:38;101819.25;;;11.86;80.91
37832;BME280;23671;38.090;-122.570;2023-01-19T03:48:06;101823.69;;;11.86;80.69
37832;BME280;23671;38.090;-122.570;2023-01-19T03:50:33;101819.25;;;11.86;80.96
37832;BME280;23671;38.090;-122.570;2023-01-19T03:53:12;101813.09;;;11.86;80.90
37832;BME280;23671;38.090;-122.570;2023-01-19T03:55:40;101821.16;;;11.84;81.16
37832;BME280;23671;38.090;-122.570;2023-01-19T03:58:08;101820.22;;;11.85;80.59
37832;BME280;23671;38.090;-122.570;2023-01-19T04:00:36;101816.72;;;11.85;81.23
37832;BME280;23671;38.090;-122.570;2023-01-19T04:03:04;101813.09;;;11.86;80.42
37832;BME280;23671;38.090;-122.570;2023-01-19T04:05:32;101806.13;;;11.85;81.15
37832;BME280;23671;38.090;-122.570;2023-01-19T04:08:00;101802.63;;;11.84;80.80
37832;BME280;23671;38.090;-122.570;2023-01-19T04:10:27;101793.75;;;11.85;80.51
37832;BME280;23671;38.090;-122.570;2023-01-19T04:12:59;101792.91;;;11.85;80.70
37832;BME280;23671;38.090;-122.570;2023-01-19T04:15:27;101784.09;;;11.84;80.68
37832;BME280;23671;38.090;-122.570;2023-01-19T04:17:58;101784.09;;;11.84;80.40
37832;BME280;23671;38.090;-122.570;2023-01-19T04:20:25;101784.09;;;11.84;80.89
37832;BME280;23671;38.090;-122.570;2023-01-19T04:22:57;101795.53;;;11.85;81.09
37832;BME280;23671;38.090;-122.570;2023-01-19T04:25:24;101806.97;;;11.85;80.67
37832;BME280;23671;38.090;-122.570;2023-01-19T04:27:52;101792.03;;;11.84;80.30
37832;BME280;23671;38.090;-122.570;2023-01-19T04:30:20;101793.00;;;11.83;80.52
37832;BME280;23671;38.090;-122.570;2023-01-19T04:32:48;101781.56;;;11.83;80.45
37832;BME280;23671;38.090;-122.570;2023-01-19T04:35:15;101789.38;;;11.84;80.72
37832;BME280;23671;38.090;-122.570;2023-01-19T04:37:42;101781.56;;;11.83;80.67
37832;BME280;23671;38.090;-122.570;2023-01-19T04:40:10;101797.31;;;11.84;80.53
37832;BME280;23671;38.090;-122.570;2023-01-19T04:42:38;101786.84;;;11.83;79.99
37832;BME280;23671;38.090;-122.570;2023-01-19T04:45:09;101798.38;;;11.82;80.50
37832;BME280;23671;38.090;-122.570;2023-01-19T04:47:36;101799.22;;;11.82;80.68
37832;BME280;23671;38.090;-122.570;2023-01-19T04:50:03;101816.06;;;11.81;80.16
37832;BME280;23671;38.090;-122.570;2023-01-19T04:52:34;101837.25;;;11.81;80.28
37832;BME280;23671;38.090;-122.570;2023-01-19T04:55:02;101846.97;;;11.81;80.19
37832;BME280;23671;38.090;-122.570;2023-01-19T04:57:30;101853.94;;;11.82;80.64
37832;BME280;23671;38.090;-122.570;2023-01-19T04:59:58;101869.00;;;11.81;80.04
37832;BME280;23671;38.090;-122.570;2023-01-19T05:02:25;101886.56;;;11.82;80.50
37832;BME280;23671;38.090;-122.570;2023-01-19T05:04:52;101891.00;;;11.82;80.74
37832;BME280;23671;38.090;-122.570;2023-01-19T05:07:19;101893.63;;;11.82;80.09
37832;BME280;23671;38.090;-122.570;2023-01-19T05:09:46;101894.59;;;11.81;80.10
37832;BME280;23671;38.090;-122.570;2023-01-19T05:12:13;101907.84;;;11.81;80.48
37832;BME280;23671;38.090;-122.570;2023-01-19T05:14:41;101897.34;;;11.79;80.62
37832;BME280;23671;38.090;-122.570;2023-01-19T05:17:09;101913.22;;;11.79;80.64
37832;BME280;23671;38.090;-122.570;2023-01-19T05:19:36;101917.66;;;11.79;80.62
37832;BME280;23671;38.090;-122.570;2023-01-19T05:22:04;101909.72;;;11.79;80.63
37832;BME280;23671;38.090;-122.570;2023-01-19T05:24:31;101911.53;;;11.78;80.62
37832;BME280;23671;38.090;-122.570;2023-01-19T05:26:58;101902.84;;;11.76;80.46
37832;BME280;23671;38.090;-122.570;2023-01-19T05:29:25;101910.97;;;11.73;80.63
37832;BME280;23671;38.090;-122.570;2023-01-19T05:31:52;101906.44;;;11.75;80.08
37832;BME280;23671;38.090;-122.570;2023-01-19T05:34:19;101910.00;;;11.74;80.58
37832;BME280;23671;38.090;-122.570;2023-01-19T05:36:47;101912.66;;;11.74;80.07
37832;BME280;23671;38.090;-122.570;2023-01-19T05:39:14;101904.84;;;11.73;80.47
37832;BME280;23671;38.090;-122.570;2023-01-19T05:41:41;101910.97;;;11.73;80.07
37832;BME280;23671;38.090;-122.570;2023-01-19T05:44:10;101916.38;;;11.72;79.92
37832;BME280;23671;38.090;-122.570;2023-01-19T05:46:38;101917.19;;;11.72;80.35
37832;BME280;23671;38.090;-122.570;2023-01-19T05:49:06;101917.31;;;11.71;80.07
37832;BME280;23671;38.090;-122.570;2023-01-19T05:51:34;101919.97;;;11.71;80.20
37832;BME280;23671;38.090;-122.570;2023-01-19T05:54:07;101921.75;;;11.70;80.08
37832;BME280;23671;38.090;-122.570;2023-01-19T05:56:34;101920.91;;;11.70;80.16
37832;BME280;23671;38.090;-122.570;2023-01-19T05:59:02;101939.53;;;11.68;79.69
37832;BME280;23671;38.090;-122.570;2023-01-19T06:01:29;101926.38;;;11.67;79.51
37832;BME280;23671;38.090;-122.570;2023-01-19T06:03:56;101937.94;;;11.66;79.74
37832;BME280;23671;38.090;-122.570;2023-01-19T06:06:23;101939.72;;;11.65;80.15
37832;BME280;23671;38.090;-122.570;2023-01-19T06:08:50;101935.38;;;11.64;79.69
37832;BME280;23671;38.090;-122.570;2023-01-19T06:11:17;101945.94;;;11.64;80.03
37832;BME280;23671;38.090;-122.570;2023-01-19T06:13:45;101939.78;;;11.64;79.52
37832;BME280;23671;38.090;-122.570;2023-01-19T06:16:12;101938.19;;;11.61;79.58
37832;BME280;23671;38.090;-122.570;2023-01-19T06:18:40;101948.00;;;11.59;79.93
37832;BME280;23671;38.090;-122.570;2023-01-19T06:21:08;101958.59;;;11.59;79.62
37832;BME280;23671;38.090;-122.570;2023-01-19T06:23:37;101963.25;;;11.56;79.79
37832;BME280;23671;38.090;-122.570;2023-01-19T06:26:04;101951.91;;;11.54;79.50
37832;BME280;23671;38.090;-122.570;2023-01-19T06:28:31;101959.09;;;11.52;79.55
37832;BME280;23671;38.090;-122.570;2023-01-19T06:30:58;101958.34;;;11.50;79.41
37832;BME280;23671;38.090;-122.570;2023-01-19T06:33:26;101958.34;;;11.50;79.58
37832;BME280;23671;38.090;-122.570;2023-01-19T06:35:53;101965.34;;;11.51;79.52
37832;BME280;23671;38.090;-122.570;2023-01-19T06:38:21;101960.97;;;11.50;79.81
37832;BME280;23671;38.090;-122.570;2023-01-19T06:40:55;101975.22;;;11.47;79.67
37832;BME280;23671;38.090;-122.570;2023-01-19T06:43:28;101975.44;;;11.44;79.20
37832;BME280;23671;38.090;-122.570;2023-01-19T06:45:55;101974.69;;;11.42;79.65
37832;BME280;23671;38.090;-122.570;2023-01-19T06:48:23;101986.22;;;11.41;79.05
37832;BME280;23671;38.090;-122.570;2023-01-19T06:50:50;101988.75;;;11.43;79.21
37832;BME280;23671;38.090;-122.570;2023-01-19T06:53:17;101983.66;;;11.40;79.46
37832;BME280;23671;38.090;-122.570;2023-01-19T06:55:46;101990.81;;;11.38;78.78
37832;BME280;23671;38.090;-122.570;2023-01-19T06:58:13;101992.72;;;11.36;79.16
37832;BME280;23671;38.090;-122.570;2023-01-19T07:00:40;102000.94;;;11.31;79.11
37832;BME280;23671;38.090;-122.570;2023-01-19T07:03:10;102000.09;;;11.31;79.29
37832;BME280;23671;38.090;-122.570;2023-01-19T07:05:43;102016.06;;;11.29;78.68
37832;BME280;23671;38.090;-122.570;2023-01-19T07:08:10;102020.69;;;11.26;78.83
37832;BME280;23671;38.090;-122.570;2023-01-19T07:10:38;102016.53;;;11.22;78.66
37832;BME280;23671;38.090;-122.570;2023-01-19T07:13:05;102015.00;;;11.18;78.76
37832;BME280;23671;38.090;-122.570;2023-01-19T07:15:32;102020.31;;;11.18;78.24
37832;BME280;23671;38.090;-122.570;2023-01-19T07:17:59;102027.47;;;11.16;78.13
37832;BME280;23671;38.090;-122.570;2023-01-19T07:20:30;102030.38;;;11.11;78.54
37832;BME280;23671;38.090;-122.570;2023-01-19T07:22:58;102028.03;;;11.07;78.19
37832;BME280;23671;38.090;-122.570;2023-01-19T07:25:26;102029.22;;;11.01;78.49
37832;BME280;23671;38.090;-122.570;2023-01-19T07:27:59;102031.03;;;11.01;78.34
37832;BME280;23671;38.090;-122.570;2023-01-19T07:30:27;102035.75;;;10.95;78.61
37832;BME280;23671;38.090;-122.570;2023-01-19T07:32:57;102050.75;;;10.95;78.04
37832;BME280;23671;38.090;-122.570;2023-01-19T07:35:25;102056.22;;;10.92;77.85
37832;BME280;23671;38.090;-122.570;2023-01-19T07:37:52;102056.56;;;10.86;78.05
37832;BME280;23671;38.090;-122.570;2023-01-19T07:40:19;102054.88;;;10.85;77.95
37832;BME280;23671;38.090;-122.570;2023-01-19T07:42:48;102044.47;;;10.82;77.89
37832;BME280;23671;38.090;-122.570;2023-01-19T07:45:19;102048.19;;;10.79;77.59
37832;BME280;23671;38.090;-122.570;2023-01-19T07:47:47;102040.41;;;10.76;77.91
37832;BME280;23671;38.090;-122.570;2023-01-19T07:50:17;102054.69;;;10.74;77.50
37832;BME280;23671;38.090;-122.570;2023-01-19T07:52:47;102044.25;;;10.71;77.79
37832;BME280;23671;38.090;-122.570;2023-01-19T07:55:20;102046.25;;;10.67;77.96
37832;BME280;23671;38.090;-122.570;2023-01-19T07:57:51;102057.16;;;10.61;77.55
37832;BME280;23671;38.090;-122.570;2023-01-19T08:00:19;102056.41;;;10.59;77.47
37832;BME280;23671;38.090;-122.570;2023-01-19T08:02:50;102066.09;;;10.59;77.30
37832;BME280;23671;38.090;-122.570;2023-01-19T08:05:19;102062.78;;;10.55;77.64
37832;BME280;23671;38.090;-122.570;2023-01-19T08:07:47;102056.75;;;10.53;77.22
37832;BME280;23671;38.090;-122.570;2023-01-19T08:10:15;102065.72;;;10.51;77.45
37832;BME280;23671;38.090;-122.570;2023-01-19T08:12:42;102055.31;;;10.48;77.26
37832;BME280;23671;38.090;-122.570;2023-01-19T08:15:10;102051.00;;;10.47;77.03
37832;BME280;23671;38.090;-122.570;2023-01-19T08:17:37;102069.63;;;10.44;77.15
37832;BME280;23671;38.090;-122.570;2023-01-19T08:20:05;102064.63;;;10.39;77.01
37832;BME280;23671;38.090;-122.570;2023-01-19T08:22:33;102062.81;;;10.40;77.05
37832;BME280;23671;38.090;-122.570;2023-01-19T08:25:00;102062.00;;;10.39;76.73
37832;BME280;23671;38.090;-122.570;2023-01-19T08:27:27;102055.19;;;10.35;76.81
37832;BME280;23671;38.090;-122.570;2023-01-19T08:29:54;102055.25;;;10.34;76.85
37832;BME280;23671;38.090;-122.570;2023-01-19T08:32:21;102063.34;;;10.31;76.82
37832;BME280;23671;38.090;-122.570;2023-01-19T08:34:48;102061.66;;;10.30;76.59
37832;BME280;23671;38.090;-122.570;2023-01-19T08:37:15;102066.19;;;10.28;76.57
37832;BME280;23671;38.090;-122.570;2023-01-19T08:39:42;102068.81;;;10.28;76.39
37832;BME280;23671;38.090;-122.570;2023-01-19T08:42:09;102064.63;;;10.24;76.50
37832;BME280;23671;38.090;-122.570;2023-01-19T08:44:36;102072.56;;;10.24;76.35
37832;BME280;23671;38.090;-122.570;2023-01-19T08:47:03;102073.56;;;10.21;76.31
37832;BME280;23671;38.090;-122.570;2023-01-19T08:49:30;102077.50;;;10.14;76.40
37832;BME280;23671;38.090;-122.570;2023-01-19T08:51:57;102076.66;;;10.14;75.96
37832;BME280;23671;38.090;-122.570;2023-01-19T08:54:24;102089.94;;;10.12;75.93
37832;BME280;23671;38.090;-122.570;2023-01-19T08:56:51;102093.56;;;10.10;76.26
37832;BME280;23671;38.090;-122.570;2023-01-19T08:59:18;102096.34;;;10.06;75.89
37832;BME280;23671;38.090;-122.570;2023-01-19T09:01:45;102097.09;;;10.08;75.95
37832;BME280;23671;38.090;-122.570;2023-01-19T09:04:12;102100.16;;;10.01;75.55
37832;BME280;23671;38.090;-122.570;2023-01-19T09:06:39;102090.47;;;10.01;75.51
37832;BME280;23671;38.090;-122.570;2023-01-19T09:09:06;102089.69;;;9.99;75.88
37832;BME280;23671;38.090;-122.570;2023-01-19T09:11:33;102093.63;;;9.92;75.64
37832;BME280;23671;38.090;-122.570;2023-01-19T09:14:01;102096.16;;;9.94;75.50
37832;BME280;23671;38.090;-122.570;2023-01-19T09:16:28;102096.34;;;9.91;75.80
37832;BME280;23671;38.090;-122.570;2023-01-19T09:18:55;102092.09;;;9.88;75.70
37832;BME280;23671;38.090;-122.570;2023-01-19T09:21:23;102095.81;;;9.84;75.86
37832;BME280;23671;38.090;-122.570;2023-01-19T09:23:51;102095.81;;;9.84;75.48
37832;BME280;23671;38.090;-122.570;2023-01-19T09:26:20;102090.97;;;9.77;75.59
37832;BME280;23671;38.090;-122.570;2023-01-19T09:28:47;102091.97;;;9.74;75.49
37832;BME280;23671;38.090;-122.570;2023-01-19T09:31:14;102094.78;;;9.71;75.50
37832;BME280;23671;38.090;-122.570;2023-01-19T09:33:41;102093.16;;;9.69;75.99
37832;BME280;23671;38.090;-122.570;2023-01-19T09:36:08;102094.16;;;9.66;75.68
37832;BME280;23671;38.090;-122.570;2023-01-19T09:38:36;102091.53;;;9.66;75.47
37832;BME280;23671;38.090;-122.570;2023-01-19T09:41:08;102090.69;;;9.66;75.39
37832;BME280;23671;38.090;-122.570;2023-01-19T09:43:53;102088.19;;;9.63;75.09
37832;BME280;23671;38.090;-122.570;2023-01-19T09:46:40;102095.25;;;9.62;75.77
37832;BME280;23671;38.090;-122.570;2023-01-19T09:51:45;102099.16;;;9.55;75.47
37832;BME280;23671;38.090;-122.570;2023-01-19T09:56:54;102106.47;;;9.50;75.67
37832;BME280;23671;38.090;-122.570;2023-01-19T09:59:23;102094.28;;;9.48;75.51
37832;BME280;23671;38.090;-122.570;2023-01-19T10:04:39;102106.94;;;9.41;75.75
37832;BME280;23671;38.090;-122.570;2023-01-19T10:20:38;102115.31;;;9.32;75.88
37832;BME280;23671;38.090;-122.570;2023-01-19T10:23:24;102108.50;;;9.28;75.89
37832;BME280;23671;38.090;-122.570;2023-01-19T10:25:54;102124.31;;;9.28;76.22
37832;BME280;23671;38.090;-122.570;2023-01-19T10:28:25;102117.34;;;9.27;75.50
37832;BME280;23671;38.090;-122.570;2023-01-19T10:30:54;102118.34;;;9.25;76.07
37832;BME280;23671;38.090;-122.570;2023-01-19T10:33:21;102119.44;;;9.21;76.28
37832;BME280;23671;38.090;-122.570;2023-01-19T10:35:49;102124.78;;;9.19;75.65
37832;BME280;23671;38.090;-122.570;2023-01-19T10:38:17;102131.69;;;9.22;75.95
37832;BME280;23671;38.090;-122.570;2023-01-19T10:41:17;102129.44;;;9.14;75.59
37832;BME280;23671;38.090;-122.570;2023-01-19T10:43:45;102141.53;;;9.18;76.07
37832;BME280;23671;38.090;-122.570;2023-01-19T10:46:27;102145.97;;;9.18;75.71
37832;BME280;23671;38.090;-122.570;2023-01-19T10:48:56;102133.00;;;9.13;76.26
37832;BME280;23671;38.090;-122.570;2023-01-19T10:51:23;102139.28;;;9.10;75.37
37832;BME280;23671;38.090;-122.570;2023-01-19T10:54:02;102139.44;;;9.07;76.09
37832;BME280;23671;38.090;-122.570;2023-01-19T10:56:34;102139.34;;;9.09;75.37
37832;BME280;23671;38.090;-122.570;2023-01-19T10:59:03;102131.44;;;9.09;75.14
37832;BME280;23671;38.090;-122.570;2023-01-19T11:01:31;102131.63;;;9.06;75.19
37832;BME280;23671;38.090;-122.570;2023-01-19T11:04:20;102139.66;;;9.03;75.39
37832;BME280;23671;38.090;-122.570;2023-01-19T11:06:48;102139.91;;;8.98;75.98
37832;BME280;23671;38.090;-122.570;2023-01-19T11:09:18;102131.28;;;8.95;75.80
37832;BME280;23671;38.090;-122.570;2023-01-19T11:11:50;102132.16;;;8.95;75.98
37832;BME280;23671;38.090;-122.570;2023-01-19T11:14:20;102129.69;;;8.92;75.70
37832;BME280;23671;38.090;-122.570;2023-01-19T11:16:56;102139.44;;;8.90;75.63
37832;BME280;23671;38.090;-122.570;2023-01-19T11:19:27;102135.06;;;8.89;75.30
37832;BME280;23671;38.090;-122.570;2023-01-19T11:22:14;102137.00;;;8.86;75.22
37832;BME280;23671;38.090;-122.570;2023-01-19T11:24:47;102134.53;;;8.83;75.12
37832;BME280;23671;38.090;-122.570;2023-01-19T11:27:19;102136.44;;;8.79;75.88
37832;BME280;23671;38.090;-122.570;2023-01-19T11:29:49;102143.53;;;8.79;75.86
37832;BME280;23671;38.090;-122.570;2023-01-19T11:32:21;102131.44;;;8.75;75.22
37832;BME280;23671;38.090;-122.570;2023-01-19T11:34:49;102131.25;;;8.78;75.63
37832;BME280;23671;38.090;-122.570;2023-01-19T11:39:51;102141.19;;;8.73;75.15
37832;BME280;23671;38.090;-122.570;2023-01-19T11:42:19;102134.34;;;8.69;75.33
37832;BME280;23671;38.090;-122.570;2023-01-19T11:45:12;102136.22;;;8.67;75.73
37832;BME280;23671;38.090;-122.570;2023-01-19T11:47:45;102137.00;;;8.69;75.21
37832;BME280;23671;38.090;-122.570;2023-01-19T11:53:12;102139.13;;;8.61;75.12
37832;BME280;23671;38.090;-122.570;2023-01-19T11:56:05;102140.22;;;8.57;75.29
37832;BME280;23671;38.090;-122.570;2023-01-19T11:58:41;102146.41;;;8.56;75.56
37832;BME280;23671;38.090;-122.570;2023-01-19T12:01:29;102150.03;;;8.53;75.72
37832;BME280;23671;38.090;-122.570;2023-01-19T12:04:13;102154.59;;;8.50;75.69
37832;BME280;23671;38.090;-122.570;2023-01-19T12:06:45;102141.66;;;8.45;75.12
37832;BME280;23671;38.090;-122.570;2023-01-19T12:09:21;102146.91;;;8.45;75.65
37832;BME280;23671;38.090;-122.570;2023-01-19T12:12:28;102154.19;;;8.40;75.25
37832;BME280;23671;38.090;-122.570;2023-01-19T12:17:39;102152.63;;;8.36;75.62
37832;BME280;23671;38.090;-122.570;2023-01-19T12:20:23;102142.88;;;8.38;75.21
37832;BME280;23671;38.090;-122.570;2023-01-19T12:23:12;102137.91;;;8.32;75.58
37832;BME280;23671;38.090;-122.570;2023-01-19T12:28:11;102140.72;;;8.27;75.46
37832;BME280;23671;38.090;-122.570;2023-01-19T12:30:40;102135.63;;;8.24;75.65
37832;BME280;23671;38.090;-122.570;2023-01-19T12:33:31;102139.13;;;8.23;75.57
37832;BME280;23671;38.090;-122.570;2023-01-19T12:36:10;102137.38;;;8.24;75.14
37832;BME280;23671;38.090;-122.570;2023-01-19T12:39:20;102129.44;;;8.25;75.13
37832;BME280;23671;38.090;-122.570;2023-01-19T12:41:48;102125.34;;;8.18;74.95
37832;BME280;23671;38.090;-122.570;2023-01-19T12:44:30;102123.59;;;8.19;74.79
37832;BME280;23671;38.090;-122.570;2023-01-19T12:47:16;102118.53;;;8.14;74.80
37832;BME280;23671;38.090;-122.570;2023-01-19T12:49:51;102116.84;;;8.13;75.22
37832;BME280;23671;38.090;-122.570;2023-01-19T12:57:54;102111.69;;;8.10;75.45
37832;BME280;23671;38.090;-122.570;2023-01-19T13:13:43;102130.66;;;7.98;75.10
37832;BME280;23671;38.090;-122.570;2023-01-19T13:21:30;102137.94;;;7.93;74.93
37832;BME280;23671;38.090;-122.570;2023-01-19T13:24:06;102142.31;;;7.93;75.21
37832;BME280;23671;38.090;-122.570;2023-01-19T13:27:09;102155.47;;;7.93;74.60
37832;BME280;23671;38.090;-122.570;2023-01-19T13:31:55;102163.72;;;7.85;74.76
37832;BME280;23671;38.090;-122.570;2023-01-19T13:34:41;102158.44;;;7.85;75.18
37832;BME280;23671;38.090;-122.570;2023-01-19T13:37:19;102156.88;;;7.81;75.35
37832;BME280;23671;38.090;-122.570;2023-01-19T13:39:50;102158.72;;;7.79;75.48
37832;BME280;23671;38.090;-122.570;2023-01-19T13:42:28;102159.59;;;7.80;75.46
37832;BME280;23671;38.090;-122.570;2023-01-19T13:45:14;102160.56;;;7.77;75.03
37832;BME280;23671;38.090;-122.570;2023-01-19T13:47:44;102165.81;;;7.77;75.00
37832;BME280;23671;38.090;-122.570;2023-01-19T13:50:30;102165.91;;;7.76;75.29
37832;BME280;23671;38.090;-122.570;2023-01-19T13:52:58;102169.66;;;7.70;75.48
37832;BME280;23671;38.090;-122.570;2023-01-19T13:57:54;102160.19;;;7.66;75.46